Ventura — ZCDT2 — position and weather

sailwx.info

Track history (hours):
 
Tides and Currents Weather Stations Pressure Air Temp Water Temp Dewpoint Dewpoint Depression Visibility Wind Speed Wind Dir Waves Ship Positions

Ventura

Last reported at 2016-Apr-30 02:16 UTC. Time now 2016-Apr-30 13:05 UTC.
Position N 28°47' W 016°51'.

Length 288 m.

Type: Passenger vessel. MMSI: 310562000.

Date/timePositionNaut miles runAvg speedWind from/ knotsBaromVisibWave heightAir tempDewpointWater temp
2016-Apr-30 02:16N 28°47' W 016°51'912.4
2016-Apr-30 01:32N 28°48' W 016°41'1712.5
2016-Apr-30 00:08N 28°50' W 016°21'812.6
2016-Apr-29 23:30N 28°51' W 016°12'1111.8
2016-Apr-29 22:32N 28°50' W 015°59'1211.8
2016-Apr-29 21:33N 28°43' W 015°48'1212.2
2016-Apr-29 20:33N 28°36' W 015°37'1312.6
2016-Apr-29 19:33N 28°29' W 015°25'9 9.5
2016-Apr-29 18:33N 28°22' W 015°18'1111.2
2016-Apr-29 17:33N 28°11' W 015°22'4 4.2
2016-Apr-29 16:33N 28°08' W 015°25'0 0.0
2016-Apr-29 15:32N 28°08' W 015°25'0 0.0
2016-Apr-29 14:32N 28°08' W 015°25'0 0.0
2016-Apr-29 13:32N 28°08' W 015°25'0 0.0
2016-Apr-29 12:20N 28°08' W 015°25'0 0.0
2016-Apr-29 11:32N 28°08' W 015°25'0 0.0
2016-Apr-29 10:32N 28°08' W 015°25'0 0.0
2016-Apr-29 09:32N 28°08' W 015°25'0 0.0
2016-Apr-29 08:23N 28°08' W 015°25'0 0.0
2016-Apr-29 07:26N 28°08' W 015°25'0 0.1
2016-Apr-29 06:33N 28°08' W 015°25'7 6.9
2016-Apr-29 05:33N 28°08' W 015°18'1110.6
2016-Apr-29 04:33N 28°10' W 015°06'10 9.5
2016-Apr-29 03:33N 28°16' W 014°58'1110.6
2016-Apr-29 02:33N 28°26' W 014°55'1110.7
2016-Apr-29 01:33N 28°37' W 014°53'1010.5
2016-Apr-29 00:33N 28°47' W 014°53'8 7.5
2016-Apr-28 23:32N 28°54' W 014°48'12 9.4
2016-Apr-28 22:18N 28°54' W 014°35'8 9.4
2016-Apr-28 21:29N 28°54' W 014°26'9 9.2
2016-Apr-28 20:32N 28°54' W 014°16'9 8.5
2016-Apr-28 19:31N 28°50' W 014°07'8 8.4
2016-Apr-28 18:33N 28°48' W 013°58'9 9.3
2016-Apr-28 17:33N 28°48' W 013°47'10 9.6
2016-Apr-28 16:33N 28°52' W 013°37'8 7.0
2016-Apr-28 15:26N 28°58' W 013°32'0 0.0
2016-Apr-28 07:11N 28°58' W 013°32'1 0.8
2016-Apr-28 06:31N 28°57' W 013°32'1313.0
2016-Apr-28 05:33N 29°03' W 013°19'1616.0
2016-Apr-28 04:33N 29°09' W 013°02'1716.9
2016-Apr-28 03:33N 29°15' W 012°44'1816.9
2016-Apr-28 02:29N 29°22' W 012°25'1616.8
2016-Apr-28 01:33N 29°29' W 012°08'1717.2
2016-Apr-28 00:34N 29°35' W 011°50'1916.9
2016-Apr-27 23:25N 29°43' W 011°30'1516.9
2016-Apr-27 22:33N 29°48' W 011°14'1616.5
2016-Apr-27 21:33N 29°55' W 010°57'113 4.5
2016-Apr-26 20:30N 31°44' W 010°24'1510.8
2016-Apr-26 19:07N 31°59' W 010°22'305 7.3
2016-Apr-25 01:08N 36°33' W 007°42'1219.6
2016-Apr-25 00:33N 36°33' W 007°56'4519.6
2016-Apr-24 22:16N 36°32' W 008°52'1419.7
2016-Apr-24 21:33N 36°33' W 009°09'1919.2
2016-Apr-24 20:33N 36°44' W 009°29'2019.8
2016-Apr-24 19:33N 37°03' W 009°37'2020.0
2016-Apr-24 18:33N 37°23' W 009°41'2019.6
2016-Apr-24 17:33N 37°41' W 009°49'2020.1
2016-Apr-24 16:33N 38°01' W 009°53'1919.5
2016-Apr-24 15:33N 38°20' W 009°60'2120.4
2016-Apr-24 14:32N 38°40' W 010°06'1425.4
2016-Apr-24 14:00N 38°54' W 010°06'613.6 340 / 171019.010.8 0.517.011.715.0
2016-Apr-24 13:33N 39°00' W 010°06'59719.6
2016-Apr-23 07:03N 48°23' W 005°32'1019.8
2016-Apr-23 06:33N 48°31' W 005°24'1817.7
2016-Apr-23 05:33N 48°44' W 005°06'1717.1
2016-Apr-23 04:33N 48°55' W 004°46'5818.2
2016-Apr-23 01:21N 49°35' W 003°41'1620.2
2016-Apr-23 00:33N 49°45' W 003°21'2020.1
2016-Apr-22 23:33N 49°57' W 002°56'1918.8
2016-Apr-22 22:33N 50°05' W 002°30'3315.8
2016-Apr-22 20:28N 50°19' W 001°43'1516.3
2016-Apr-22 19:34N 50°26' W 001°22'1616.1
2016-Apr-22 18:34N 50°34' W 001°01'1111.5
2016-Apr-22 17:33N 50°45' W 001°07'1010.3
2016-Apr-22 16:34N 50°51' W 001°20'4 3.4
2016-Apr-22 15:29N 50°53' W 001°24'0 0.0
2016-Apr-22 14:32N 50°53' W 001°24'0 0.0
2016-Apr-22 13:32N 50°53' W 001°24'0 0.0
2016-Apr-22 12:32N 50°53' W 001°24'0 0.0
2016-Apr-22 11:32N 50°53' W 001°24'0 0.0
2016-Apr-22 10:32N 50°53' W 001°24'0 0.0
2016-Apr-22 09:32N 50°53' W 001°24'0 0.0
2016-Apr-22 08:32N 50°53' W 001°24'0 0.0
2016-Apr-22 07:32N 50°53' W 001°24'0 0.0
2016-Apr-22 06:32N 50°53' W 001°24'0 0.0
2016-Apr-22 05:32N 50°53' W 001°24'3 3.0
2016-Apr-22 04:33N 50°51' W 001°21'9 8.7
2016-Apr-22 03:33N 50°46' W 001°10'1110.6
2016-Apr-22 02:33N 50°38' W 000°59'1313.4
2016-Apr-22 01:33N 50°29' W 001°15'1513.4
2016-Apr-22 00:26N 50°24' W 001°37'1914.2
2016-Apr-21 23:06N 50°15' W 002°03'814.5
2016-Apr-21 22:33N 50°10' W 002°11'2713.6
2016-Apr-21 20:33N 49°51' W 002°43'1515.1
2016-Apr-21 19:33N 49°44' W 003°04'1515.4
2016-Apr-21 18:33N 49°36' W 003°24'1515.3
2016-Apr-21 17:33N 49°27' W 003°42'1616.1
2016-Apr-21 16:33N 49°17' W 004°02'1716.1
2016-Apr-21 15:28N 49°07' W 004°23'1516.0
2016-Apr-21 14:32N 48°58' W 004°42'1615.9
2016-Apr-21 13:33N 48°48' W 005°01'1615.7
2016-Apr-21 12:33N 48°36' W 005°16'4617.8
2016-Apr-21 10:00N 47°54' W 005°42'   110 / 71016.610.8 12.511.211.7
Track history (hours):
 
Tides and Currents Weather Stations Pressure Air Temp Water Temp Dewpoint Dewpoint Depression Visibility Wind Speed Wind Dir Waves Ship Positions

Ventura

Last reported at 2016-Apr-30 02:16 UTC. Time now 2016-Apr-30 13:05 UTC.
Position N 28°47' W 016°51'.

Length 288 m.

Type: Passenger vessel. MMSI: 310562000.

Date/timePositionNaut miles runAvg speedWind from/ knotsBaromVisibWave heightAir tempDewpointWater temp
2016-Apr-30 02:16N 28°47' W 016°51'912.4
2016-Apr-30 01:32N 28°48' W 016°41'1712.5
2016-Apr-30 00:08N 28°50' W 016°21'812.6
2016-Apr-29 23:30N 28°51' W 016°12'1111.8
2016-Apr-29 22:32N 28°50' W 015°59'1211.8
2016-Apr-29 21:33N 28°43' W 015°48'1212.2
2016-Apr-29 20:33N 28°36' W 015°37'1312.6
2016-Apr-29 19:33N 28°29' W 015°25'9 9.5
2016-Apr-29 18:33N 28°22' W 015°18'1111.2
2016-Apr-29 17:33N 28°11' W 015°22'4 4.2
2016-Apr-29 16:33N 28°08' W 015°25'0 0.0
2016-Apr-29 15:32N 28°08' W 015°25'0 0.0
2016-Apr-29 14:32N 28°08' W 015°25'0 0.0
2016-Apr-29 13:32N 28°08' W 015°25'0 0.0
2016-Apr-29 12:20N 28°08' W 015°25'0 0.0
2016-Apr-29 11:32N 28°08' W 015°25'0 0.0
2016-Apr-29 10:32N 28°08' W 015°25'0 0.0
2016-Apr-29 09:32N 28°08' W 015°25'0 0.0
2016-Apr-29 08:23N 28°08' W 015°25'0 0.0
2016-Apr-29 07:26N 28°08' W 015°25'0 0.1
2016-Apr-29 06:33N 28°08' W 015°25'7 6.9
2016-Apr-29 05:33N 28°08' W 015°18'1110.6
2016-Apr-29 04:33N 28°10' W 015°06'10 9.5
2016-Apr-29 03:33N 28°16' W 014°58'1110.6
2016-Apr-29 02:33N 28°26' W 014°55'1110.7
2016-Apr-29 01:33N 28°37' W 014°53'1010.5
2016-Apr-29 00:33N 28°47' W 014°53'8 7.5
2016-Apr-28 23:32N 28°54' W 014°48'12 9.4
2016-Apr-28 22:18N 28°54' W 014°35'8 9.4
2016-Apr-28 21:29N 28°54' W 014°26'9 9.2
2016-Apr-28 20:32N 28°54' W 014°16'9 8.5
2016-Apr-28 19:31N 28°50' W 014°07'8 8.4
2016-Apr-28 18:33N 28°48' W 013°58'9 9.3
2016-Apr-28 17:33N 28°48' W 013°47'10 9.6
2016-Apr-28 16:33N 28°52' W 013°37'8 7.0
2016-Apr-28 15:26N 28°58' W 013°32'0 0.0
2016-Apr-28 07:11N 28°58' W 013°32'1 0.8
2016-Apr-28 06:31N 28°57' W 013°32'1313.0
2016-Apr-28 05:33N 29°03' W 013°19'1616.0
2016-Apr-28 04:33N 29°09' W 013°02'1716.9
2016-Apr-28 03:33N 29°15' W 012°44'1816.9
2016-Apr-28 02:29N 29°22' W 012°25'1616.8
2016-Apr-28 01:33N 29°29' W 012°08'1717.2
2016-Apr-28 00:34N 29°35' W 011°50'1916.9
2016-Apr-27 23:25N 29°43' W 011°30'1516.9
2016-Apr-27 22:33N 29°48' W 011°14'1616.5
2016-Apr-27 21:33N 29°55' W 010°57'113 4.5
2016-Apr-26 20:30N 31°44' W 010°24'1510.8
2016-Apr-26 19:07N 31°59' W 010°22'305 7.3
2016-Apr-25 01:08N 36°33' W 007°42'1219.6
2016-Apr-25 00:33N 36°33' W 007°56'4519.6
2016-Apr-24 22:16N 36°32' W 008°52'1419.7
2016-Apr-24 21:33N 36°33' W 009°09'1919.2
2016-Apr-24 20:33N 36°44' W 009°29'2019.8
2016-Apr-24 19:33N 37°03' W 009°37'2020.0
2016-Apr-24 18:33N 37°23' W 009°41'2019.6
2016-Apr-24 17:33N 37°41' W 009°49'2020.1
2016-Apr-24 16:33N 38°01' W 009°53'1919.5
2016-Apr-24 15:33N 38°20' W 009°60'2120.4
2016-Apr-24 14:32N 38°40' W 010°06'1425.4
2016-Apr-24 14:00N 38°54' W 010°06'613.6 340 / 171019.010.8 0.517.011.715.0
2016-Apr-24 13:33N 39°00' W 010°06'59719.6
2016-Apr-23 07:03N 48°23' W 005°32'1019.8
2016-Apr-23 06:33N 48°31' W 005°24'1817.7
2016-Apr-23 05:33N 48°44' W 005°06'1717.1
2016-Apr-23 04:33N 48°55' W 004°46'5818.2
2016-Apr-23 01:21N 49°35' W 003°41'1620.2
2016-Apr-23 00:33N 49°45' W 003°21'2020.1
2016-Apr-22 23:33N 49°57' W 002°56'1918.8
2016-Apr-22 22:33N 50°05' W 002°30'3315.8
2016-Apr-22 20:28N 50°19' W 001°43'1516.3
2016-Apr-22 19:34N 50°26' W 001°22'1616.1
2016-Apr-22 18:34N 50°34' W 001°01'1111.5
2016-Apr-22 17:33N 50°45' W 001°07'1010.3
2016-Apr-22 16:34N 50°51' W 001°20'4 3.4
2016-Apr-22 15:29N 50°53' W 001°24'0 0.0
2016-Apr-22 14:32N 50°53' W 001°24'0 0.0
2016-Apr-22 13:32N 50°53' W 001°24'0 0.0
2016-Apr-22 12:32N 50°53' W 001°24'0 0.0
2016-Apr-22 11:32N 50°53' W 001°24'0 0.0
2016-Apr-22 10:32N 50°53' W 001°24'0 0.0
2016-Apr-22 09:32N 50°53' W 001°24'0 0.0
2016-Apr-22 08:32N 50°53' W 001°24'0 0.0
2016-Apr-22 07:32N 50°53' W 001°24'0 0.0
2016-Apr-22 06:32N 50°53' W 001°24'0 0.0
2016-Apr-22 05:32N 50°53' W 001°24'3 3.0
2016-Apr-22 04:33N 50°51' W 001°21'9 8.7
2016-Apr-22 03:33N 50°46' W 001°10'1110.6
2016-Apr-22 02:33N 50°38' W 000°59'1313.4
2016-Apr-22 01:33N 50°29' W 001°15'1513.4
2016-Apr-22 00:26N 50°24' W 001°37'1914.2
2016-Apr-21 23:06N 50°15' W 002°03'814.5
2016-Apr-21 22:33N 50°10' W 002°11'2713.6
2016-Apr-21 20:33N 49°51' W 002°43'1515.1
2016-Apr-21 19:33N 49°44' W 003°04'1515.4
2016-Apr-21 18:33N 49°36' W 003°24'1515.3
2016-Apr-21 17:33N 49°27' W 003°42'1616.1
2016-Apr-21 16:33N 49°17' W 004°02'1716.1
2016-Apr-21 15:28N 49°07' W 004°23'1516.0
2016-Apr-21 14:32N 48°58' W 004°42'1615.9
2016-Apr-21 13:33N 48°48' W 005°01'1615.7
2016-Apr-21 12:33N 48°36' W 005°16'4617.8
2016-Apr-21 10:00N 47°54' W 005°42'   110 / 71016.610.8 12.511.211.7

Dump ship's entire track history